Terminal Aerodrome Forecast
Issued by NWS

Home | Current Version | Previous Version | Text Only | Print | Product List | Glossary On
Versions: 1 2 3 4 5 6 7 8 9 10 11 12 13 14 15 16 17 18 19
859
FTUS43 KIND 160812 AAA
TAFHUF
TAF AMD
KHUF 160812Z 1608/1706 28007KT P6SM FEW250
     FM161400 27009KT P6SM BKN070
     FM161900 27008KT P6SM BKN015
     FM170400 28006KT P6SM BKN035=

USA.gov is the U.S. government's official web portal to all federal, state and local government web resources and services.